Time;durP1;ratioP1;P1;durP2;ratioP2;P2;SDS_P1;SDS_P2;PMS_P1;PMS_P2;Temp;Humidity;BMP_temperature;BMP_pressure;BME280_temperature;BME280_humidity;BME280_pressure;Samples;Min_cycle;Max_cycle;Signal;HPM_P1;HPM_P2
2020/12/25 00:02:00;;;;;;;4.03;0.90;;;3.10;99.90;;;;;;5007578;28;20022;-85
2020/12/25 00:04:25;;;;;;;6.03;0.95;;;3.10;99.90;;;;;;5005916;28;20125;-84
2020/12/25 00:06:51;;;;;;;3.45;0.77;;;3.10;99.90;;;;;;5006091;28;20497;-83
2020/12/25 00:09:17;;;;;;;2.67;0.60;;;3.10;99.90;;;;;;5007456;28;20041;-86
2020/12/25 00:11:43;;;;;;;5.97;1.08;;;3.00;99.90;;;;;;4989616;28;20405;-84
2020/12/25 00:14:09;;;;;;;1.67;0.60;;;3.00;99.90;;;;;;5006626;28;20026;-84
2020/12/25 00:16:35;;;;;;;1.88;0.90;;;3.10;99.90;;;;;;4989621;28;20026;-83
2020/12/25 00:19:00;;;;;;;2.20;0.70;;;3.00;99.90;;;;;;4989444;28;20046;-84
2020/12/25 00:21:26;;;;;;;1.48;0.50;;;3.00;99.90;;;;;;4989276;28;20229;-84
2020/12/25 00:23:52;;;;;;;3.92;1.02;;;3.00;99.90;;;;;;5007328;28;20150;-85
2020/12/25 00:26:22;;;;;;;2.13;0.93;;;3.00;99.90;;;;;;4989546;28;20094;-85
2020/12/25 00:28:48;;;;;;;0.40;0.28;;;2.90;99.90;;;;;;4988624;28;20578;-84
2020/12/25 00:31:31;;;;;;;3.28;0.93;;;2.90;99.90;;;;;;4989577;28;20027;-86
2020/12/25 00:34:04;;;;;;;8.80;0.95;;;2.90;99.90;;;;;;5007949;28;20081;-85
2020/12/25 00:36:33;;;;;;;2.92;1.00;;;2.90;99.90;;;;;;4989525;28;20034;-84
2020/12/25 00:39:00;;;;;;;1.15;0.65;;;2.90;99.90;;;;;;4989247;28;20046;-84
2020/12/25 00:41:27;;;;;;;2.65;0.88;;;2.90;99.90;;;;;;4988895;28;20030;-85
2020/12/25 00:43:53;;;;;;;3.90;1.10;;;2.90;99.90;;;;;;4989227;28;20046;-83
2020/12/25 00:46:19;;;;;;;2.60;0.50;;;2.90;99.90;;;;;;4989248;28;20034;-87
2020/12/25 00:48:44;;;;;;;1.80;0.93;;;2.90;99.90;;;;;;4989109;28;20018;-87
2020/12/25 00:51:15;;;;;;;1.73;0.63;;;2.90;99.90;;;;;;4989084;28;20030;-85
2020/12/25 00:53:41;;;;;;;2.83;1.00;;;2.90;99.90;;;;;;4988637;28;20033;-84
2020/12/25 00:56:08;;;;;;;1.63;0.70;;;2.90;99.90;;;;;;4988983;28;20050;-83
2020/12/25 00:58:34;;;;;;;4.93;0.95;;;2.90;99.90;;;;;;5006550;28;20034;-85
2020/12/25 01:00:59;;;;;;;5.28;0.60;;;2.90;99.90;;;;;;4988810;28;20078;-84
2020/12/25 01:03:25;;;;;;;4.55;2.35;;;2.90;99.90;;;;;;4988879;28;20022;-85
2020/12/25 01:05:51;;;;;;;2.03;1.08;;;2.90;99.90;;;;;;4988976;28;20557;-84
2020/12/25 01:08:16;;;;;;;0.73;0.52;;;2.90;99.90;;;;;;4988442;28;20033;-84
2020/12/25 01:10:42;;;;;;;1.98;1.00;;;2.90;99.90;;;;;;4988610;28;20022;-84
2020/12/25 01:13:08;;;;;;;1.50;0.57;;;2.80;99.90;;;;;;4988420;28;20034;-85
2020/12/25 01:15:33;;;;;;;1.58;0.70;;;2.80;99.90;;;;;;4988287;28;20022;-87
2020/12/25 01:17:59;;;;;;;0.82;0.57;;;2.80;99.90;;;;;;4988498;28;20030;-84
2020/12/25 01:20:24;;;;;;;2.40;1.23;;;2.70;99.90;;;;;;4988353;28;20061;-87
2020/12/25 01:22:50;;;;;;;4.28;0.65;;;2.70;99.90;;;;;;4988582;28;20026;-86
2020/12/25 01:25:16;;;;;;;0.60;0.47;;;2.60;99.90;;;;;;4988388;28;20031;-85
2020/12/25 01:27:41;;;;;;;0.32;0.30;;;2.50;99.90;;;;;;4988115;28;20042;-84
2020/12/25 01:30:07;;;;;;;3.03;0.30;;;2.40;99.90;;;;;;4987979;28;20030;-84
2020/12/25 01:32:34;;;;;;;1.65;1.05;;;2.40;99.90;;;;;;4988122;28;20061;-86
2020/12/25 01:35:01;;;;;;;1.35;0.40;;;2.30;99.90;;;;;;5005531;28;20046;-83
2020/12/25 01:37:27;;;;;;;0.90;0.70;;;2.30;99.90;;;;;;4988057;28;20034;-85
2020/12/25 01:39:53;;;;;;;1.38;0.70;;;2.20;99.90;;;;;;4988305;28;20037;-85
2020/12/25 01:42:18;;;;;;;8.13;0.82;;;2.20;99.90;;;;;;4987846;28;20436;-86
2020/12/25 01:44:44;;;;;;;1.42;0.63;;;2.10;99.90;;;;;;4988241;28;20034;-86
2020/12/25 01:47:10;;;;;;;3.33;0.85;;;2.00;99.90;;;;;;4988197;28;20026;-85
2020/12/25 01:49:35;;;;;;;1.70;0.60;;;1.90;99.90;;;;;;4987889;28;20026;-83
2020/12/25 01:52:01;;;;;;;1.73;0.85;;;1.80;99.90;;;;;;4988024;28;20022;-87
2020/12/25 01:54:27;;;;;;;3.40;0.98;;;1.80;99.90;;;;;;4988154;28;20031;-84
2020/12/25 01:56:53;;;;;;;1.67;0.75;;;1.70;99.90;;;;;;5005276;28;20062;-83
2020/12/25 01:59:19;;;;;;;1.02;0.82;;;1.60;99.90;;;;;;4988035;28;20035;-83
2020/12/25 02:01:45;;;;;;;3.40;1.10;;;1.60;99.90;;;;;;4987890;28;20417;-84
2020/12/25 02:04:10;;;;;;;6.20;1.20;;;1.60;99.90;;;;;;4987754;28;20101;-86
2020/12/25 02:06:40;;;;;;;2.35;0.77;;;1.50;99.90;;;;;;4988041;28;20030;-84
2020/12/25 02:09:07;;;;;;;5.88;1.23;;;1.50;99.90;;;;;;4987683;28;20050;-84
2020/12/25 02:11:34;;;;;;;2.60;0.93;;;1.40;99.90;;;;;;4987485;28;20050;-84
2020/12/25 02:14:00;;;;;;;1.52;0.65;;;1.40;99.90;;;;;;4987633;28;20431;-83
2020/12/25 02:16:26;;;;;;;2.92;0.70;;;1.40;99.90;;;;;;4987816;28;20022;-86
2020/12/25 02:18:52;;;;;;;2.28;1.20;;;1.40;99.90;;;;;;4987733;28;20062;-83
2020/12/25 02:21:17;;;;;;;14.57;1.52;;;1.40;99.90;;;;;;4988011;28;20075;-86
2020/12/25 02:23:44;;;;;;;1.73;0.45;;;1.40;99.90;;;;;;4987497;28;20081;-86
2020/12/25 02:26:10;;;;;;;10.23;1.00;;;1.40;99.90;;;;;;4987323;28;20030;-85
2020/12/25 02:28:36;;;;;;;2.92;0.82;;;1.40;99.90;;;;;;5005170;28;20027;-86
2020/12/25 02:31:02;;;;;;;9.18;0.93;;;1.40;99.90;;;;;;4987398;28;20050;-83
2020/12/25 02:33:27;;;;;;;13.02;1.73;;;1.30;99.90;;;;;;4987705;28;20034;-84
2020/12/25 02:35:53;;;;;;;5.40;0.73;;;1.30;99.90;;;;;;4990508;28;20029;-84
2020/12/25 02:38:18;;;;;;;0.77;0.40;;;1.30;99.90;;;;;;4988588;28;20061;-84
2020/12/25 02:40:44;;;;;;;2.22;0.60;;;1.30;99.90;;;;;;4988582;28;20058;-83
2020/12/25 02:43:09;;;;;;;2.50;0.77;;;1.20;99.90;;;;;;4987971;28;20053;-82
2020/12/25 02:45:35;;;;;;;0.93;0.63;;;1.10;99.90;;;;;;5005439;28;20382;-83
2020/12/25 02:48:01;;;;;;;4.00;0.88;;;1.10;99.90;;;;;;4988086;28;20030;-85
2020/12/25 02:50:26;;;;;;;1.55;0.47;;;1.10;99.90;;;;;;4988175;28;20105;-85
2020/12/25 02:52:52;;;;;;;3.42;1.05;;;1.00;99.90;;;;;;4989892;28;20026;-84
2020/12/25 02:55:17;;;;;;;1.95;0.70;;;1.00;99.90;;;;;;4991668;28;20030;-85
2020/12/25 02:57:43;;;;;;;0.52;0.35;;;1.10;99.90;;;;;;4991298;28;20018;-84
2020/12/25 03:00:08;;;;;;;4.25;0.70;;;1.10;99.90;;;;;;5008754;28;20049;-83
2020/12/25 03:02:34;;;;;;;1.33;0.65;;;1.00;99.90;;;;;;4991441;28;20029;-82
2020/12/25 03:04:59;;;;;;;1.65;0.90;;;1.00;99.90;;;;;;4990976;28;20077;-83
2020/12/25 03:07:25;;;;;;;1.48;0.68;;;1.00;99.90;;;;;;4991463;28;20027;-85
2020/12/25 03:09:51;;;;;;;0.90;0.60;;;1.00;99.90;;;;;;4991416;28;20039;-84
2020/12/25 03:12:16;;;;;;;3.47;0.90;;;1.00;99.90;;;;;;5008522;28;20026;-83
2020/12/25 03:14:42;;;;;;;8.48;0.95;;;1.00;99.90;;;;;;4990947;28;20034;-85
2020/12/25 03:17:07;;;;;;;0.77;0.73;;;1.00;99.90;;;;;;4990848;28;20041;-85
2020/12/25 03:19:33;;;;;;;1.33;0.60;;;0.90;99.90;;;;;;4990222;28;20035;-82
2020/12/25 03:21:58;;;;;;;0.85;0.43;;;0.90;99.90;;;;;;4990896;28;20023;-83
2020/12/25 03:24:24;;;;;;;0.40;0.40;;;0.90;99.90;;;;;;5008462;28;20026;-82
2020/12/25 03:26:50;;;;;;;1.20;0.88;;;0.90;99.90;;;;;;5006864;28;20026;-85
2020/12/25 03:29:15;;;;;;;3.08;1.40;;;0.90;99.90;;;;;;5008217;28;20040;-83
2020/12/25 03:31:41;;;;;;;1.10;0.52;;;0.80;99.90;;;;;;4991148;28;20094;-84
2020/12/25 03:34:07;;;;;;;3.88;1.25;;;0.80;99.90;;;;;;4990498;28;20030;-83
2020/12/25 03:36:32;;;;;;;4.00;0.85;;;0.80;99.90;;;;;;4990503;28;20026;-84
2020/12/25 03:38:58;;;;;;;2.38;0.93;;;0.80;99.90;;;;;;4990343;28;20094;-84
2020/12/25 03:41:24;;;;;;;4.07;1.10;;;0.70;99.90;;;;;;4990218;28;20054;-83
2020/12/25 03:43:50;;;;;;;3.05;0.57;;;0.80;99.90;;;;;;4990523;28;20055;-83
2020/12/25 03:46:15;;;;;;;1.92;1.02;;;0.70;99.90;;;;;;4990344;28;20026;-82
2020/12/25 03:48:41;;;;;;;1.90;0.68;;;0.70;99.90;;;;;;4990083;28;20029;-84
2020/12/25 03:51:06;;;;;;;2.67;0.75;;;0.70;99.90;;;;;;4990183;28;20030;-82
2020/12/25 03:53:32;;;;;;;4.13;0.90;;;0.70;99.90;;;;;;4989965;28;20022;-83
2020/12/25 03:55:58;;;;;;;0.88;0.60;;;0.70;99.90;;;;;;5007352;28;20030;-83
2020/12/25 03:58:23;;;;;;;5.30;1.10;;;0.70;99.90;;;;;;4990142;28;20036;-84
2020/12/25 04:00:49;;;;;;;1.95;0.70;;;0.70;99.90;;;;;;4990180;28;20023;-83
2020/12/25 04:03:15;;;;;;;0.95;0.75;;;0.70;99.90;;;;;;4989822;28;20029;-84
2020/12/25 04:05:40;;;;;;;1.00;0.80;;;0.60;99.90;;;;;;4989940;28;20065;-82
2020/12/25 04:08:06;;;;;;;6.35;1.00;;;0.60;99.90;;;;;;4989648;28;20026;-82
2020/12/25 04:10:32;;;;;;;11.60;0.98;;;0.60;99.90;;;;;;4990998;28;20026;-83
2020/12/25 04:13:00;;;;;;;0.47;0.40;;;0.60;99.90;;;;;;4990948;28;20458;-82
2020/12/25 04:15:26;;;;;;;1.23;0.80;;;0.50;99.90;;;;;;5008115;28;20033;-82
2020/12/25 04:17:52;;;;;;;3.40;0.88;;;0.50;99.90;;;;;;5007243;28;20038;-83
2020/12/25 04:20:17;;;;;;;2.25;0.60;;;0.50;99.90;;;;;;4989782;28;20053;-83
2020/12/25 04:22:43;;;;;;;0.55;0.20;;;0.50;99.90;;;;;;4989237;28;20034;-83
2020/12/25 04:25:09;;;;;;;6.07;0.98;;;0.50;99.90;;;;;;5007332;28;20526;-84
2020/12/25 04:27:34;;;;;;;1.63;0.80;;;0.50;99.90;;;;;;5006770;28;20026;-84
2020/12/25 04:30:00;;;;;;;1.50;1.00;;;0.50;99.90;;;;;;4989381;28;20026;-84
2020/12/25 04:32:25;;;;;;;0.73;0.52;;;0.50;99.90;;;;;;4989520;28;20030;-84
2020/12/25 04:34:51;;;;;;;0.38;0.35;;;0.50;99.90;;;;;;4989856;28;20097;-83
2020/12/25 04:37:17;;;;;;;5.40;0.80;;;0.50;99.90;;;;;;4989085;28;20045;-83
2020/12/25 04:39:43;;;;;;;0.20;0.20;;;0.50;99.90;;;;;;4989446;28;20038;-83
2020/12/25 04:42:09;;;;;;;2.17;0.63;;;0.50;99.90;;;;;;4988532;28;20041;-83
2020/12/25 04:44:34;;;;;;;2.45;0.70;;;0.40;99.90;;;;;;5006370;28;20050;-82
2020/12/25 04:47:10;;;;;;;4.53;1.02;;;0.50;99.90;;;;;;5006590;28;20471;-82
2020/12/25 04:49:37;;;;;;;10.77;0.52;;;0.50;99.90;;;;;;4988965;28;20030;-81
2020/12/25 04:52:06;;;;;;;0.80;0.68;;;0.40;99.90;;;;;;4988636;28;20053;-82
2020/12/25 04:54:32;;;;;;;6.90;0.30;;;0.40;99.90;;;;;;5006993;28;20030;-80
2020/12/25 04:56:59;;;;;;;2.67;0.80;;;0.40;99.90;;;;;;4988748;28;20037;-85
2020/12/25 04:59:33;;;;;;;1.52;0.35;;;0.40;99.90;;;;;;4988647;28;20038;-82
2020/12/25 05:02:02;;;;;;;3.20;0.95;;;0.40;99.90;;;;;;4989146;28;20033;-81
2020/12/25 05:04:27;;;;;;;0.00;0.00;;;0.40;99.90;;;;;;4988769;28;20041;-85
2020/12/25 05:06:54;;;;;;;2.17;0.28;;;0.40;99.90;;;;;;4988775;28;20121;-82
2020/12/25 05:09:24;;;;;;;1.08;0.10;;;0.40;99.90;;;;;;4988795;28;20026;-80
2020/12/25 05:11:54;;;;;;;0.47;0.17;;;0.40;99.90;;;;;;5006432;28;20038;-80
2020/12/25 05:14:25;;;;;;;2.42;1.20;;;0.40;99.90;;;;;;4988544;28;20031;-81
2020/12/25 05:16:54;;;;;;;2.53;0.90;;;0.40;99.90;;;;;;4988784;28;20037;-82
2020/12/25 05:19:25;;;;;;;2.38;0.77;;;0.40;99.90;;;;;;5005634;28;20126;-81
2020/12/25 05:21:53;;;;;;;9.20;0.30;;;0.40;99.90;;;;;;4988846;28;20042;-81
2020/12/25 05:24:18;;;;;;;1.70;0.70;;;0.40;99.90;;;;;;4988607;28;20478;-81
2020/12/25 05:26:57;;;;;;;1.08;0.47;;;0.40;99.90;;;;;;4987925;28;20023;-82
2020/12/25 05:29:26;;;;;;;2.88;1.10;;;0.40;99.90;;;;;;4988572;28;20077;-82
2020/12/25 05:31:53;;;;;;;0.15;0.15;;;0.40;99.90;;;;;;5005937;28;20027;-83
2020/12/25 05:34:20;;;;;;;0.35;0.35;;;0.40;99.90;;;;;;4988424;28;20501;-84
2020/12/25 05:36:53;;;;;;;0.13;0.10;;;0.40;99.90;;;;;;5005840;28;20031;-82
2020/12/25 05:39:26;;;;;;;1.05;0.40;;;0.40;99.90;;;;;;4987953;28;20065;-81
2020/12/25 05:42:00;;;;;;;2.83;0.57;;;0.40;99.90;;;;;;4988063;28;20066;-82
2020/12/25 05:44:28;;;;;;;2.65;0.95;;;0.30;99.90;;;;;;4988509;28;20046;-81
2020/12/25 05:46:59;;;;;;;0.50;0.30;;;0.30;99.90;;;;;;4987997;28;20071;-81
2020/12/25 05:49:27;;;;;;;1.10;0.20;;;0.30;99.90;;;;;;4988361;28;20038;-81
2020/12/25 05:51:52;;;;;;;0.30;0.30;;;0.30;99.90;;;;;;4988233;28;20445;-81
2020/12/25 05:54:23;;;;;;;4.18;0.85;;;0.30;99.90;;;;;;4987874;28;20046;-82
2020/12/25 05:56:54;;;;;;;1.38;0.35;;;0.30;99.90;;;;;;5005415;28;20058;-83
2020/12/25 05:59:27;;;;;;;2.60;0.45;;;0.20;99.90;;;;;;4987628;28;20042;-84
2020/12/25 06:01:59;;;;;;;0.30;0.30;;;0.20;99.90;;;;;;5004297;28;20117;-82
2020/12/25 06:04:26;;;;;;;3.50;1.40;;;0.20;99.90;;;;;;4988208;28;20058;-83
2020/12/25 06:06:52;;;;;;;0.77;0.57;;;0.30;99.90;;;;;;4987904;28;20023;-81
2020/12/25 06:09:19;;;;;;;0.35;0.20;;;0.30;99.90;;;;;;4987758;28;20031;-83
2020/12/25 06:11:50;;;;;;;0.40;0.22;;;0.20;99.90;;;;;;4988003;28;20078;-82
2020/12/25 06:14:18;;;;;;;2.20;0.68;;;0.20;99.90;;;;;;4988209;28;20044;-82
2020/12/25 06:16:59;;;;;;;2.53;0.88;;;0.20;99.90;;;;;;4987930;28;20069;-82
2020/12/25 06:19:45;;;;;;;6.93;1.92;;;0.20;99.90;;;;;;4987457;28;20124;-78
2020/12/25 06:22:21;;;;;;;5.05;1.35;;;0.20;99.90;;;;;;4987455;28;20095;-76
2020/12/25 06:24:49;;;;;;;3.88;2.08;;;0.20;99.90;;;;;;5004953;28;20057;-77
2020/12/25 06:27:15;;;;;;;8.02;2.90;;;0.30;99.90;;;;;;5004518;28;20022;-78
2020/12/25 06:29:44;;;;;;;9.10;1.77;;;0.20;99.90;;;;;;4990390;28;20030;-77
2020/12/25 06:32:11;;;;;;;2.33;1.40;;;0.20;99.90;;;;;;4991656;28;20143;-78
2020/12/25 06:34:45;;;;;;;3.80;1.25;;;0.20;99.90;;;;;;4990976;28;20044;-77
2020/12/25 06:37:13;;;;;;;5.35;1.60;;;0.20;99.90;;;;;;4991110;28;20430;-80
2020/12/25 06:39:46;;;;;;;3.42;0.85;;;0.20;99.90;;;;;;4991191;28;20043;-79
2020/12/25 06:42:12;;;;;;;6.10;1.10;;;0.20;99.90;;;;;;4990264;28;20034;-77
2020/12/25 06:44:41;;;;;;;0.20;0.17;;;0.20;99.90;;;;;;5008800;28;20023;-76
2020/12/25 06:47:07;;;;;;;4.75;1.38;;;0.20;99.90;;;;;;4991075;28;20044;-77
2020/12/25 06:49:36;;;;;;;0.30;0.30;;;0.20;99.90;;;;;;4990610;28;20069;-77
2020/12/25 06:52:03;;;;;;;1.35;0.60;;;0.10;99.90;;;;;;4991161;28;20023;-77
2020/12/25 06:54:39;;;;;;;2.67;1.15;;;0.10;99.90;;;;;;4990677;28;20027;-78
2020/12/25 06:57:10;;;;;;;5.55;0.73;;;0.10;99.90;;;;;;5008130;28;20027;-79
2020/12/25 06:59:35;;;;;;;0.45;0.45;;;0.10;99.90;;;;;;5008122;28;20045;-79
2020/12/25 07:02:04;;;;;;;1.58;0.50;;;0.10;99.90;;;;;;4990344;28;20034;-79
2020/12/25 07:04:31;;;;;;;0.20;0.20;;;0.10;99.90;;;;;;4988691;28;20027;-78
2020/12/25 07:07:00;;;;;;;9.98;0.88;;;0.10;99.90;;;;;;4989795;28;20026;-79
2020/12/25 07:09:44;;;;;;;1.15;0.43;;;0.10;99.90;;;;;;5009546;28;20479;-78
2020/12/25 07:12:14;;;;;;;3.13;1.00;;;0.00;99.90;;;;;;4991819;28;20053;-78
2020/12/25 07:14:40;;;;;;;5.88;0.45;;;0.10;99.90;;;;;;5007721;28;20045;-79
2020/12/25 07:17:06;;;;;;;6.75;0.73;;;0.10;99.90;;;;;;4990188;28;20026;-79
2020/12/25 07:19:34;;;;;;;2.05;0.80;;;0.10;99.90;;;;;;4990484;28;20042;-78
2020/12/25 07:22:00;;;;;;;0.57;0.57;;;0.10;99.90;;;;;;4989678;28;20030;-79
2020/12/25 07:24:26;;;;;;;1.27;0.40;;;0.10;99.90;;;;;;5008138;28;20057;-77
2020/12/25 07:26:55;;;;;;;0.50;0.43;;;0.10;99.90;;;;;;4990662;28;20030;-79
2020/12/25 07:29:21;;;;;;;16.63;0.68;;;0.10;99.90;;;;;;4989982;28;20038;-79
2020/12/25 07:31:54;;;;;;;0.63;0.50;;;0.10;99.90;;;;;;4990779;28;20049;-79
2020/12/25 07:34:22;;;;;;;8.93;0.90;;;0.10;99.90;;;;;;4990184;28;20027;-79
2020/12/25 07:36:50;;;;;;;4.18;0.45;;;0.10;99.90;;;;;;4990060;28;20062;-79
2020/12/25 07:39:16;;;;;;;3.30;1.45;;;0.10;99.90;;;;;;5007221;28;20038;-78
2020/12/25 07:41:42;;;;;;;1.35;0.50;;;0.10;99.90;;;;;;5007466;28;20038;-78
2020/12/25 07:44:07;;;;;;;0.55;0.45;;;0.10;99.90;;;;;;4989424;28;20058;-79
2020/12/25 07:46:34;;;;;;;3.08;0.93;;;0.20;99.90;;;;;;4989998;28;20033;-79
2020/12/25 07:49:01;;;;;;;2.08;0.75;;;0.20;99.90;;;;;;5007103;28;20030;-80
2020/12/25 07:51:30;;;;;;;0.52;0.35;;;0.10;99.90;;;;;;4989889;28;20057;-79
2020/12/25 07:53:57;;;;;;;1.02;0.50;;;0.20;99.90;;;;;;4990302;28;20069;-79
2020/12/25 07:56:28;;;;;;;1.13;0.50;;;0.20;99.90;;;;;;4990049;28;20034;-80
2020/12/25 07:58:54;;;;;;;4.97;1.42;;;0.20;99.90;;;;;;4989599;28;20046;-79
2020/12/25 08:01:25;;;;;;;3.47;0.80;;;0.30;99.90;;;;;;4989849;28;20034;-79
2020/12/25 08:03:51;;;;;;;1.20;0.55;;;0.30;99.90;;;;;;4989285;28;20126;-78
2020/12/25 08:06:21;;;;;;;16.48;1.33;;;0.40;99.90;;;;;;4989126;28;20093;-79
2020/12/25 08:09:09;;;;;;;1.10;0.40;;;0.40;99.90;;;;;;4988960;28;20031;-77
2020/12/25 08:11:37;;;;;;;0.35;0.30;;;0.50;99.90;;;;;;4988864;28;20470;-78
2020/12/25 08:14:07;;;;;;;0.40;0.40;;;0.70;99.90;;;;;;4989068;28;20022;-79
2020/12/25 08:16:37;;;;;;;5.30;1.17;;;0.90;99.90;;;;;;5006616;28;20030;-79
2020/12/25 08:19:04;;;;;;;3.70;0.40;;;1.20;99.90;;;;;;5004640;28;20034;-79
2020/12/25 08:21:30;;;;;;;11.55;0.50;;;1.50;99.90;;;;;;4988008;28;20026;-79
2020/12/25 08:23:56;;;;;;;14.95;1.25;;;1.80;99.90;;;;;;4988578;28;20062;-80
2020/12/25 08:26:32;;;;;;;1.45;0.77;;;2.10;99.90;;;;;;4988954;28;20037;-78
2020/12/25 08:28:58;;;;;;;2.17;0.68;;;2.30;99.90;;;;;;5006737;28;20054;-80
2020/12/25 08:31:24;;;;;;;1.13;0.60;;;2.50;99.90;;;;;;4989011;28;20030;-79
2020/12/25 08:33:54;;;;;;;5.30;1.00;;;2.70;99.90;;;;;;5006638;28;20502;-81
2020/12/25 08:36:20;;;;;;;3.90;1.58;;;3.00;99.90;;;;;;4989203;28;20498;-79
2020/12/25 08:38:46;;;;;;;2.03;0.98;;;3.20;99.90;;;;;;4988497;28;20077;-80
2020/12/25 08:41:12;;;;;;;7.18;2.00;;;3.50;99.90;;;;;;4988699;28;20031;-81
2020/12/25 08:43:38;;;;;;;2.65;1.67;;;3.60;99.90;;;;;;5005914;28;20081;-79
2020/12/25 08:46:03;;;;;;;13.55;6.68;;;3.60;99.90;;;;;;5005621;28;20054;-80
2020/12/25 08:48:34;;;;;;;9.50;3.53;;;3.50;99.90;;;;;;4988616;28;20078;-79
2020/12/25 08:51:14;;;;;;;10.68;2.38;;;3.40;99.90;;;;;;4988328;28;20033;-79
2020/12/25 08:53:51;;;;;;;2.88;1.83;;;3.20;99.90;;;;;;5004113;28;20027;-79
2020/12/25 08:56:19;;;;;;;3.05;1.45;;;3.20;99.90;;;;;;4987707;28;20118;-79
2020/12/25 08:58:59;;;;;;;3.97;1.00;;;3.30;99.90;;;;;;4988190;28;20049;-79
2020/12/25 09:01:25;;;;;;;3.50;0.93;;;3.40;99.90;;;;;;4988696;28;20058;-80
2020/12/25 09:03:51;;;;;;;6.07;1.02;;;3.70;99.90;;;;;;4988314;28;20399;-80
2020/12/25 09:06:17;;;;;;;3.17;0.70;;;3.70;99.90;;;;;;4987471;28;20540;-80
2020/12/25 09:08:43;;;;;;;2.90;0.90;;;3.60;99.90;;;;;;4987197;28;20478;-81
2020/12/25 09:11:13;;;;;;;2.92;0.77;;;3.80;99.90;;;;;;4987946;28;20026;-80
2020/12/25 09:13:39;;;;;;;3.30;0.65;;;4.10;99.90;;;;;;4987410;28;20019;-80
2020/12/25 09:16:05;;;;;;;3.20;0.85;;;4.40;99.90;;;;;;4987868;28;20462;-78
2020/12/25 09:18:32;;;;;;;4.78;0.60;;;4.70;99.90;;;;;;4987690;28;20030;-79
2020/12/25 09:20:58;;;;;;;6.75;0.85;;;5.00;99.90;;;;;;4989120;28;20061;-79
2020/12/25 09:23:24;;;;;;;0.95;0.43;;;5.20;99.90;;;;;;4989990;28;20085;-78
2020/12/25 09:25:50;;;;;;;1.23;0.52;;;5.40;99.90;;;;;;4988107;28;20073;-81
2020/12/25 09:28:16;;;;;;;1.95;0.65;;;5.80;99.90;;;;;;4987214;28;20443;-79
2020/12/25 09:30:41;;;;;;;1.33;0.52;;;6.10;99.90;;;;;;4986173;28;20033;-82
2020/12/25 09:33:07;;;;;;;2.17;0.90;;;6.40;99.90;;;;;;4986957;28;20140;-80
2020/12/25 09:35:32;;;;;;;0.95;0.57;;;6.50;99.90;;;;;;4986767;28;20116;-81
2020/12/25 09:37:58;;;;;;;1.10;0.80;;;6.70;99.90;;;;;;4987247;28;20022;-80
2020/12/25 09:40:24;;;;;;;5.22;2.50;;;6.90;99.90;;;;;;5005396;28;20065;-81
2020/12/25 09:42:49;;;;;;;4.75;1.95;;;6.90;99.90;;;;;;4987839;28;20053;-79
2020/12/25 09:45:15;;;;;;;0.10;0.10;;;7.00;99.90;;;;;;4987975;28;20045;-80
2020/12/25 09:47:41;;;;;;;4.30;1.58;;;7.20;99.90;;;;;;5004852;28;20037;-79
2020/12/25 09:50:07;;;;;;;4.22;1.45;;;7.40;99.90;;;;;;5005120;28;20048;-78
2020/12/25 09:52:34;;;;;;;1.98;0.93;;;7.50;99.90;;;;;;4987306;28;20027;-81
2020/12/25 09:55:00;;;;;;;4.57;2.25;;;7.70;99.90;;;;;;4987021;28;20023;-79
2020/12/25 09:57:25;;;;;;;2.97;0.93;;;8.00;99.90;;;;;;5005114;28;20025;-80
2020/12/25 09:59:55;;;;;;;4.32;0.77;;;8.40;99.90;;;;;;5004695;28;20046;-82
2020/12/25 10:02:20;;;;;;;0.75;0.45;;;8.70;99.90;;;;;;4986865;28;20102;-79
2020/12/25 10:04:46;;;;;;;1.05;0.50;;;8.90;99.90;;;;;;5004975;28;20034;-80
2020/12/25 10:07:11;;;;;;;2.30;0.50;;;8.90;99.90;;;;;;5004205;28;20085;-80
2020/12/25 10:09:38;;;;;;;1.10;0.43;;;9.00;99.90;;;;;;5004868;28;20045;-80
2020/12/25 10:12:03;;;;;;;2.72;0.85;;;9.20;99.90;;;;;;4986784;28;20411;-78
2020/12/25 10:14:29;;;;;;;7.72;0.70;;;9.20;99.90;;;;;;4986783;28;20054;-80
2020/12/25 10:16:55;;;;;;;5.50;0.80;;;9.40;99.90;;;;;;5004578;28;20022;-82
2020/12/25 10:19:20;;;;;;;2.75;1.17;;;9.60;99.90;;;;;;5004614;28;20053;-79
2020/12/25 10:21:49;;;;;;;0.98;0.50;;;9.60;99.90;;;;;;4986714;28;20030;-81
2020/12/25 10:24:15;;;;;;;3.45;0.85;;;9.60;99.90;;;;;;4986952;28;20037;-78
2020/12/25 10:26:40;;;;;;;1.55;0.82;;;9.60;99.90;;;;;;4986967;28;20027;-80
2020/12/25 10:29:06;;;;;;;2.88;0.60;;;9.60;99.90;;;;;;4986307;28;20026;-80
2020/12/25 10:31:32;;;;;;;1.65;0.80;;;9.50;99.90;;;;;;4986971;28;20030;-80
2020/12/25 10:33:58;;;;;;;1.67;0.70;;;9.40;99.90;;;;;;5004552;28;20042;-78
2020/12/25 10:36:24;;;;;;;2.13;0.63;;;9.40;99.90;;;;;;4987099;28;20030;-82
2020/12/25 10:38:51;;;;;;;4.53;1.00;;;9.60;99.90;;;;;;5004938;28;20503;-80
2020/12/25 10:41:16;;;;;;;0.70;0.40;;;9.70;99.90;;;;;;5004740;28;20030;-79
2020/12/25 10:43:42;;;;;;;0.93;0.63;;;9.90;99.90;;;;;;5007785;28;20046;-81
2020/12/25 10:46:08;;;;;;;1.27;0.43;;;10.00;99.90;;;;;;4991459;28;20117;-81
2020/12/25 10:48:33;;;;;;;1.55;0.50;;;10.20;99.90;;;;;;4989999;28;20062;-82
2020/12/25 10:50:59;;;;;;;3.53;0.80;;;10.30;99.90;;;;;;4989096;28;20085;-81
2020/12/25 10:53:25;;;;;;;1.63;0.57;;;10.50;99.90;;;;;;4995290;28;20037;-80
2020/12/25 10:55:50;;;;;;;0.32;0.30;;;10.70;99.90;;;;;;4993882;28;20035;-78
2020/12/25 10:58:16;;;;;;;0.65;0.40;;;10.90;99.90;;;;;;5005428;28;20022;-82
2020/12/25 11:00:41;;;;;;;2.47;0.60;;;11.10;99.90;;;;;;4986980;28;20039;-82
2020/12/25 11:03:07;;;;;;;1.02;0.40;;;11.40;99.90;;;;;;4985997;28;20987;-80
2020/12/25 11:05:32;;;;;;;4.45;0.50;;;11.40;99.90;;;;;;4986309;28;20034;-82
2020/12/25 11:07:58;;;;;;;0.50;0.30;;;11.50;99.90;;;;;;4987566;28;20033;-79
2020/12/25 11:10:25;;;;;;;2.85;0.60;;;11.30;99.90;;;;;;5003172;28;20135;-79
2020/12/25 11:12:51;;;;;;;3.63;0.75;;;11.20;99.90;;;;;;5003411;28;20058;-81
2020/12/25 11:15:17;;;;;;;0.30;0.30;;;11.10;99.90;;;;;;4999421;28;20049;-82
2020/12/25 11:17:42;;;;;;;0.52;0.45;;;11.00;99.90;;;;;;5008289;28;20026;-81
2020/12/25 11:20:08;;;;;;;0.93;0.35;;;11.00;99.90;;;;;;5025965;28;20037;-80
2020/12/25 11:22:33;;;;;;;1.08;0.70;;;10.90;99.90;;;;;;5009416;28;20062;-80
2020/12/25 11:24:59;;;;;;;0.05;0.03;;;11.10;99.90;;;;;;5009164;28;20033;-81
2020/12/25 11:27:26;;;;;;;3.03;0.40;;;11.30;99.90;;;;;;5009819;28;20029;-81
2020/12/25 11:29:51;;;;;;;1.35;0.65;;;11.50;99.90;;;;;;5009251;28;20436;-80
2020/12/25 11:32:19;;;;;;;1.33;0.52;;;11.80;99.90;;;;;;5009533;28;20123;-80
2020/12/25 11:34:44;;;;;;;1.92;0.95;;;12.00;99.90;;;;;;5009215;28;20033;-81
2020/12/25 11:37:10;;;;;;;0.52;0.30;;;12.30;99.90;;;;;;5026351;28;20025;-80
2020/12/25 11:39:35;;;;;;;1.08;0.60;;;12.30;99.90;;;;;;5009270;28;20038;-83
2020/12/25 11:42:01;;;;;;;0.77;0.30;;;12.10;99.90;;;;;;5006389;28;20030;-82
2020/12/25 11:44:27;;;;;;;1.83;0.60;;;12.20;99.90;;;;;;5026432;28;20030;-84
2020/12/25 11:46:59;;;;;;;0.52;0.35;;;12.10;99.90;;;;;;5009949;28;20032;-80
2020/12/25 11:49:25;;;;;;;1.92;0.65;;;12.10;99.90;;;;;;5027213;28;20030;-82
2020/12/25 11:51:56;;;;;;;0.47;0.35;;;12.20;99.90;;;;;;5009192;28;20093;-82
2020/12/25 11:54:22;;;;;;;0.98;0.40;;;12.40;99.90;;;;;;5009609;28;20036;-82
2020/12/25 11:56:47;;;;;;;4.05;0.63;;;12.60;99.90;;;;;;5009130;28;20085;-82
2020/12/25 11:59:13;;;;;;;2.42;0.55;;;12.60;99.90;;;;;;5009456;28;20041;-84
2020/12/25 12:01:38;;;;;;;1.27;0.40;;;12.60;99.90;;;;;;5027433;28;20032;-82
2020/12/25 12:04:04;;;;;;;1.67;0.60;;;12.80;99.90;;;;;;5026904;28;20040;-84
2020/12/25 12:06:29;;;;;;;2.47;0.82;;;13.00;99.90;;;;;;5026673;28;20026;-81
2020/12/25 12:08:56;;;;;;;0.65;0.40;;;13.30;99.90;;;;;;5026792;28;20030;-80
2020/12/25 12:11:22;;;;;;;1.77;0.82;;;13.10;99.90;;;;;;5008906;28;20030;-84
2020/12/25 12:13:47;;;;;;;1.17;0.68;;;13.20;99.90;;;;;;5009016;28;20029;-80
2020/12/25 12:16:20;;;;;;;4.75;0.65;;;13.20;99.90;;;;;;5008932;28;20050;-80
2020/12/25 12:18:45;;;;;;;1.05;0.47;;;13.30;99.90;;;;;;5008402;28;20036;-80
2020/12/25 12:21:12;;;;;;;0.32;0.25;;;13.10;99.90;;;;;;5009130;28;20026;-82
2020/12/25 12:23:38;;;;;;;0.70;0.50;;;13.10;99.90;;;;;;5008492;28;20103;-84
2020/12/25 12:26:04;;;;;;;1.75;0.55;;;13.10;99.90;;;;;;5007941;28;20038;-83
2020/12/25 12:28:30;;;;;;;2.17;0.70;;;13.00;99.90;;;;;;5025755;28;20030;-81
2020/12/25 12:30:56;;;;;;;1.83;0.60;;;12.90;99.90;;;;;;5006162;28;20025;-81
2020/12/25 12:33:21;;;;;;;2.95;0.45;;;13.20;99.90;;;;;;5007908;28;20033;-80
2020/12/25 12:35:47;;;;;;;1.25;0.50;;;13.40;99.90;;;;;;5008028;28;20098;-79
2020/12/25 12:38:13;;;;;;;0.70;0.50;;;13.70;99.90;;;;;;5024500;28;20022;-77
2020/12/25 12:40:39;;;;;;;4.47;0.57;;;13.80;99.90;;;;;;5006489;28;20045;-76
2020/12/25 12:43:06;;;;;;;1.60;0.43;;;13.70;99.90;;;;;;5007028;28;20053;-77
2020/12/25 12:45:31;;;;;;;1.02;0.80;;;13.70;99.90;;;;;;5007517;28;20033;-79
2020/12/25 12:47:57;;;;;;;0.75;0.40;;;13.90;99.90;;;;;;5025695;28;20034;-78
2020/12/25 12:50:23;;;;;;;0.45;0.35;;;14.00;99.90;;;;;;5008187;28;20026;-77
2020/12/25 12:52:48;;;;;;;2.22;0.75;;;13.70;99.90;;;;;;5025045;28;20030;-79
2020/12/25 12:55:14;;;;;;;0.32;0.20;;;12.80;99.90;;;;;;5007687;28;20029;-80